sensor_id;sensor_type;location;lat;lon;timestamp;pressure;altitude;pressure_sealevel;temperature;humidity
49779;BME280;36217;60.232;24.776;2022-10-31T00:00:11;101229.13;;;3.51;89.87
49779;BME280;36217;60.232;24.776;2022-10-31T00:02:39;101231.52;;;3.53;89.81
49779;BME280;36217;60.232;24.776;2022-10-31T00:05:07;101232.71;;;3.72;89.05
49779;BME280;36217;60.232;24.776;2022-10-31T00:07:33;101237.23;;;3.76;89.02
49779;BME280;36217;60.232;24.776;2022-10-31T00:10:00;101237.12;;;3.65;89.26
49779;BME280;36217;60.232;24.776;2022-10-31T00:12:27;101233.06;;;3.66;89.26
49779;BME280;36217;60.232;24.776;2022-10-31T00:14:54;101234.10;;;3.52;88.71
49779;BME280;36217;60.232;24.776;2022-10-31T00:17:22;101240.01;;;3.86;88.35
49779;BME280;36217;60.232;24.776;2022-10-31T00:19:49;101240.15;;;3.67;88.99
49779;BME280;36217;60.232;24.776;2022-10-31T00:22:16;101239.24;;;3.64;89.37
49779;BME280;36217;60.232;24.776;2022-10-31T00:24:43;101237.68;;;3.67;89.28
49779;BME280;36217;60.232;24.776;2022-10-31T00:27:10;101239.44;;;3.70;89.14
49779;BME280;36217;60.232;24.776;2022-10-31T00:29:38;101239.69;;;3.65;89.18
49779;BME280;36217;60.232;24.776;2022-10-31T00:32:05;101243.20;;;3.70;88.98
49779;BME280;36217;60.232;24.776;2022-10-31T00:34:32;101248.83;;;3.70;88.93
49779;BME280;36217;60.232;24.776;2022-10-31T00:36:59;101256.69;;;3.79;88.64
49779;BME280;36217;60.232;24.776;2022-10-31T00:39:26;101257.45;;;3.73;88.93
49779;BME280;36217;60.232;24.776;2022-10-31T00:41:53;101254.24;;;3.73;88.61
49779;BME280;36217;60.232;24.776;2022-10-31T00:44:20;101257.94;;;3.76;88.61
49779;BME280;36217;60.232;24.776;2022-10-31T00:46:48;101261.40;;;3.78;88.54
49779;BME280;36217;60.232;24.776;2022-10-31T00:49:15;101263.10;;;3.70;88.64
49779;BME280;36217;60.232;24.776;2022-10-31T00:51:42;101264.33;;;3.73;88.73
49779;BME280;36217;60.232;24.776;2022-10-31T00:54:09;101265.47;;;3.78;88.44
49779;BME280;36217;60.232;24.776;2022-10-31T00:56:36;101264.94;;;3.64;88.90
49779;BME280;36217;60.232;24.776;2022-10-31T00:59:03;101268.74;;;3.60;89.02
49779;BME280;36217;60.232;24.776;2022-10-31T01:01:30;101267.62;;;3.67;88.78
49779;BME280;36217;60.232;24.776;2022-10-31T01:03:57;101267.58;;;3.54;89.34
49779;BME280;36217;60.232;24.776;2022-10-31T01:06:24;101270.23;;;3.59;88.94
49779;BME280;36217;60.232;24.776;2022-10-31T01:08:51;101274.71;;;3.41;89.98
49779;BME280;36217;60.232;24.776;2022-10-31T01:11:20;101277.18;;;3.41;89.95
49779;BME280;36217;60.232;24.776;2022-10-31T01:13:49;101278.14;;;3.44;89.63
49779;BME280;36217;60.232;24.776;2022-10-31T01:16:19;101276.04;;;3.37;89.91
49779;BME280;36217;60.232;24.776;2022-10-31T01:18:47;101275.92;;;3.69;89.72
49779;BME280;36217;60.232;24.776;2022-10-31T01:21:17;101272.88;;;3.38;89.87
49779;BME280;36217;60.232;24.776;2022-10-31T01:23:45;101271.75;;;3.41;89.43
49779;BME280;36217;60.232;24.776;2022-10-31T01:26:13;101270.78;;;3.99;89.18
49779;BME280;36217;60.232;24.776;2022-10-31T01:28:44;101271.17;;;3.48;89.21
49779;BME280;36217;60.232;24.776;2022-10-31T01:31:12;101278.70;;;3.75;88.59
49779;BME280;36217;60.232;24.776;2022-10-31T01:33:39;101279.69;;;3.34;89.47
49779;BME280;36217;60.232;24.776;2022-10-31T01:36:16;101282.80;;;3.47;89.34
49779;BME280;36217;60.232;24.776;2022-10-31T01:38:44;101283.71;;;3.37;89.63
49779;BME280;36217;60.232;24.776;2022-10-31T01:41:13;101283.30;;;3.42;89.41
49779;BME280;36217;60.232;24.776;2022-10-31T01:43:43;101283.90;;;3.36;89.32
49779;BME280;36217;60.232;24.776;2022-10-31T01:46:10;101294.42;;;3.42;89.09
49779;BME280;36217;60.232;24.776;2022-10-31T01:48:39;101294.54;;;3.44;88.89
49779;BME280;36217;60.232;24.776;2022-10-31T01:51:08;101290.21;;;3.38;89.03
49779;BME280;36217;60.232;24.776;2022-10-31T01:53:36;101289.74;;;3.49;88.78
49779;BME280;36217;60.232;24.776;2022-10-31T01:56:04;101291.34;;;3.45;88.68
49779;BME280;36217;60.232;24.776;2022-10-31T01:58:31;101287.29;;;3.40;88.86
49779;BME280;36217;60.232;24.776;2022-10-31T02:01:00;101283.99;;;3.48;88.20
49779;BME280;36217;60.232;24.776;2022-10-31T02:03:29;101284.41;;;3.24;88.40
49779;BME280;36217;60.232;24.776;2022-10-31T02:05:57;101284.44;;;3.26;88.04
49779;BME280;36217;60.232;24.776;2022-10-31T02:08:27;101291.69;;;3.79;87.67
49779;BME280;36217;60.232;24.776;2022-10-31T02:10:56;101292.49;;;3.33;87.66
49779;BME280;36217;60.232;24.776;2022-10-31T02:13:25;101296.51;;;3.39;88.38
49779;BME280;36217;60.232;24.776;2022-10-31T02:15:54;101293.56;;;3.42;88.64
49779;BME280;36217;60.232;24.776;2022-10-31T02:18:23;101294.04;;;3.20;88.16
49779;BME280;36217;60.232;24.776;2022-10-31T02:20:58;101294.18;;;3.44;87.89
49779;BME280;36217;60.232;24.776;2022-10-31T02:24:25;101300.18;;;3.47;87.86
49779;BME280;36217;60.232;24.776;2022-10-31T02:27:07;101301.96;;;3.74;88.16
49779;BME280;36217;60.232;24.776;2022-10-31T02:29:53;101302.44;;;3.52;88.82
49779;BME280;36217;60.232;24.776;2022-10-31T02:32:27;101307.92;;;3.35;87.94
49779;BME280;36217;60.232;24.776;2022-10-31T02:35:03;101313.99;;;3.14;88.48
49779;BME280;36217;60.232;24.776;2022-10-31T02:37:36;101312.16;;;3.07;88.74
49779;BME280;36217;60.232;24.776;2022-10-31T02:40:10;101313.64;;;3.31;88.64
49779;BME280;36217;60.232;24.776;2022-10-31T02:42:45;101320.08;;;3.09;87.98
49779;BME280;36217;60.232;24.776;2022-10-31T02:45:21;101319.83;;;3.17;88.30
49779;BME280;36217;60.232;24.776;2022-10-31T02:47:54;101321.24;;;3.09;88.38
49779;BME280;36217;60.232;24.776;2022-10-31T02:50:24;101324.62;;;3.37;87.48
49779;BME280;36217;60.232;24.776;2022-10-31T02:52:53;101329.35;;;3.55;87.67
49779;BME280;36217;60.232;24.776;2022-10-31T02:56:25;101330.94;;;2.99;88.32
49779;BME280;36217;60.232;24.776;2022-10-31T02:58:56;101331.04;;;3.33;89.34
49779;BME280;36217;60.232;24.776;2022-10-31T03:01:39;101326.19;;;3.28;89.19
49779;BME280;36217;60.232;24.776;2022-10-31T03:04:30;101319.20;;;2.87;89.41
49779;BME280;36217;60.232;24.776;2022-10-31T03:07:06;101317.77;;;3.43;88.70
49779;BME280;36217;60.232;24.776;2022-10-31T03:09:41;101320.55;;;2.93;88.30
49779;BME280;36217;60.232;24.776;2022-10-31T03:12:16;101320.13;;;3.40;88.75
49779;BME280;36217;60.232;24.776;2022-10-31T03:14:51;101313.23;;;3.38;88.96
49779;BME280;36217;60.232;24.776;2022-10-31T03:17:22;101311.94;;;2.89;88.58
49779;BME280;36217;60.232;24.776;2022-10-31T03:19:54;101323.85;;;3.14;87.33
49779;BME280;36217;60.232;24.776;2022-10-31T03:22:25;101324.89;;;3.37;88.18
49779;BME280;36217;60.232;24.776;2022-10-31T03:24:55;101323.02;;;2.98;88.94
49779;BME280;36217;60.232;24.776;2022-10-31T03:27:26;101321.21;;;3.34;88.41
49779;BME280;36217;60.232;24.776;2022-10-31T03:29:56;101327.02;;;3.29;88.41
49779;BME280;36217;60.232;24.776;2022-10-31T03:32:27;101331.84;;;2.75;88.86
49779;BME280;36217;60.232;24.776;2022-10-31T03:34:58;101334.41;;;3.20;89.18
49779;BME280;36217;60.232;24.776;2022-10-31T03:37:27;101337.17;;;3.13;89.45
49779;BME280;36217;60.232;24.776;2022-10-31T03:39:58;101344.67;;;3.04;90.07
49779;BME280;36217;60.232;24.776;2022-10-31T03:42:29;101341.41;;;3.02;90.55
49779;BME280;36217;60.232;24.776;2022-10-31T03:44:59;101334.62;;;2.53;91.40
49779;BME280;36217;60.232;24.776;2022-10-31T03:47:29;101342.53;;;2.81;90.53
49779;BME280;36217;60.232;24.776;2022-10-31T03:49:56;101343.59;;;2.84;91.36
49779;BME280;36217;60.232;24.776;2022-10-31T03:52:27;101339.14;;;2.75;91.91
49779;BME280;36217;60.232;24.776;2022-10-31T03:54:58;101341.11;;;2.80;91.39
49779;BME280;36217;60.232;24.776;2022-10-31T03:57:29;101341.47;;;2.94;91.13
49779;BME280;36217;60.232;24.776;2022-10-31T04:00:04;101338.46;;;2.82;91.79
49779;BME280;36217;60.232;24.776;2022-10-31T04:02:33;101343.15;;;2.86;91.43
49779;BME280;36217;60.232;24.776;2022-10-31T04:05:02;101347.54;;;2.83;91.61
49779;BME280;36217;60.232;24.776;2022-10-31T04:07:33;101351.27;;;2.65;92.27
49779;BME280;36217;60.232;24.776;2022-10-31T04:10:04;101350.72;;;2.67;92.11
49779;BME280;36217;60.232;24.776;2022-10-31T04:12:34;101349.09;;;2.66;92.29
49779;BME280;36217;60.232;24.776;2022-10-31T04:15:04;101346.16;;;2.49;91.94
49779;BME280;36217;60.232;24.776;2022-10-31T04:17:35;101353.69;;;2.72;91.64
49779;BME280;36217;60.232;24.776;2022-10-31T04:20:07;101357.45;;;3.14;90.99
49779;BME280;36217;60.232;24.776;2022-10-31T04:22:33;101365.11;;;2.78;91.73
49779;BME280;36217;60.232;24.776;2022-10-31T04:25:01;101365.83;;;2.65;92.41
49779;BME280;36217;60.232;24.776;2022-10-31T04:27:28;101371.98;;;2.65;92.39
49779;BME280;36217;60.232;24.776;2022-10-31T04:29:55;101380.24;;;2.63;92.49
49779;BME280;36217;60.232;24.776;2022-10-31T04:32:22;101383.44;;;2.62;92.61
49779;BME280;36217;60.232;24.776;2022-10-31T04:34:49;101381.84;;;2.71;93.14
49779;BME280;36217;60.232;24.776;2022-10-31T04:37:16;101387.55;;;2.43;93.28
49779;BME280;36217;60.232;24.776;2022-10-31T04:39:43;101392.28;;;2.54;93.09
49779;BME280;36217;60.232;24.776;2022-10-31T04:42:11;101387.12;;;2.30;94.09
49779;BME280;36217;60.232;24.776;2022-10-31T04:44:38;101393.26;;;2.57;92.99
49779;BME280;36217;60.232;24.776;2022-10-31T04:47:05;101392.62;;;2.42;93.43
49779;BME280;36217;60.232;24.776;2022-10-31T04:49:32;101390.88;;;2.57;92.97
49779;BME280;36217;60.232;24.776;2022-10-31T04:51:59;101389.60;;;2.38;93.67
49779;BME280;36217;60.232;24.776;2022-10-31T04:54:26;101388.99;;;2.58;93.00
49779;BME280;36217;60.232;24.776;2022-10-31T04:56:53;101395.84;;;2.71;92.40
49779;BME280;36217;60.232;24.776;2022-10-31T04:59:21;101392.53;;;2.72;92.11
49779;BME280;36217;60.232;24.776;2022-10-31T05:01:48;101394.74;;;2.70;92.05
49779;BME280;36217;60.232;24.776;2022-10-31T05:04:15;101398.42;;;2.80;91.45
49779;BME280;36217;60.232;24.776;2022-10-31T05:06:42;101395.45;;;2.79;91.25
49779;BME280;36217;60.232;24.776;2022-10-31T05:09:09;101393.94;;;2.76;91.15
49779;BME280;36217;60.232;24.776;2022-10-31T05:11:36;101392.49;;;2.73;91.02
49779;BME280;36217;60.232;24.776;2022-10-31T05:14:04;101395.42;;;2.83;90.09
49779;BME280;36217;60.232;24.776;2022-10-31T05:16:31;101397.61;;;2.74;90.40
49779;BME280;36217;60.232;24.776;2022-10-31T05:18:58;101396.85;;;2.50;90.06
49779;BME280;36217;60.232;24.776;2022-10-31T05:21:25;101395.13;;;2.74;90.06
49779;BME280;36217;60.232;24.776;2022-10-31T05:23:52;101398.84;;;2.66;90.16
49779;BME280;36217;60.232;24.776;2022-10-31T05:26:20;101395.42;;;2.83;89.78
49779;BME280;36217;60.232;24.776;2022-10-31T05:28:47;101398.66;;;2.84;89.23
49779;BME280;36217;60.232;24.776;2022-10-31T05:31:14;101395.66;;;2.81;89.32
49779;BME280;36217;60.232;24.776;2022-10-31T05:33:41;101392.44;;;2.52;89.07
49779;BME280;36217;60.232;24.776;2022-10-31T05:36:08;101392.00;;;2.86;88.55
49779;BME280;36217;60.232;24.776;2022-10-31T05:38:35;101392.11;;;2.81;88.35
49779;BME280;36217;60.232;24.776;2022-10-31T05:41:03;101390.52;;;2.87;87.91
49779;BME280;36217;60.232;24.776;2022-10-31T05:43:30;101402.57;;;2.74;87.94
49779;BME280;36217;60.232;24.776;2022-10-31T05:45:57;101409.56;;;2.83;87.07
49779;BME280;36217;60.232;24.776;2022-10-31T05:48:24;101411.12;;;2.51;87.80
49779;BME280;36217;60.232;24.776;2022-10-31T05:50:51;101416.80;;;2.65;88.19
49779;BME280;36217;60.232;24.776;2022-10-31T05:53:18;101407.92;;;2.46;89.53
49779;BME280;36217;60.232;24.776;2022-10-31T05:55:47;101407.18;;;2.90;88.49
49779;BME280;36217;60.232;24.776;2022-10-31T05:58:13;101404.92;;;2.73;88.13
49779;BME280;36217;60.232;24.776;2022-10-31T06:00:41;101406.47;;;2.78;87.70
49779;BME280;36217;60.232;24.776;2022-10-31T06:03:08;101412.97;;;2.69;87.56
49779;BME280;36217;60.232;24.776;2022-10-31T06:05:36;101413.59;;;2.38;87.27
49779;BME280;36217;60.232;24.776;2022-10-31T06:08:03;101414.75;;;2.77;86.22
49779;BME280;36217;60.232;24.776;2022-10-31T06:10:30;101416.58;;;2.75;86.65
49779;BME280;36217;60.232;24.776;2022-10-31T06:12:57;101420.58;;;2.69;87.21
49779;BME280;36217;60.232;24.776;2022-10-31T06:15:24;101420.94;;;2.71;87.00
49779;BME280;36217;60.232;24.776;2022-10-31T06:18:00;101422.67;;;2.93;86.17
49779;BME280;36217;60.232;24.776;2022-10-31T06:20:27;101429.11;;;2.96;85.72
49779;BME280;36217;60.232;24.776;2022-10-31T06:22:54;101428.23;;;2.63;85.63
49779;BME280;36217;60.232;24.776;2022-10-31T06:25:21;101430.64;;;3.03;85.06
49779;BME280;36217;60.232;24.776;2022-10-31T06:27:49;101426.72;;;3.22;84.40
49779;BME280;36217;60.232;24.776;2022-10-31T06:30:16;101428.36;;;2.61;84.23
49779;BME280;36217;60.232;24.776;2022-10-31T06:32:43;101426.33;;;3.24;83.77
49779;BME280;36217;60.232;24.776;2022-10-31T06:35:10;101426.13;;;2.79;83.67
49779;BME280;36217;60.232;24.776;2022-10-31T06:37:38;101426.47;;;3.43;83.13
49779;BME280;36217;60.232;24.776;2022-10-31T06:40:06;101427.77;;;3.14;83.17
49779;BME280;36217;60.232;24.776;2022-10-31T06:42:33;101424.64;;;3.13;82.64
49779;BME280;36217;60.232;24.776;2022-10-31T06:45:00;101430.70;;;3.22;81.63
49779;BME280;36217;60.232;24.776;2022-10-31T06:47:27;101432.32;;;3.32;82.25
49779;BME280;36217;60.232;24.776;2022-10-31T06:49:55;101432.03;;;3.28;83.14
49779;BME280;36217;60.232;24.776;2022-10-31T06:52:22;101430.13;;;3.29;82.90
49779;BME280;36217;60.232;24.776;2022-10-31T06:54:49;101433.02;;;3.38;82.69
49779;BME280;36217;60.232;24.776;2022-10-31T06:57:16;101435.13;;;3.51;82.43
49779;BME280;36217;60.232;24.776;2022-10-31T06:59:43;101444.23;;;3.74;81.61
49779;BME280;36217;60.232;24.776;2022-10-31T07:02:11;101453.48;;;3.79;81.66
49779;BME280;36217;60.232;24.776;2022-10-31T07:04:38;101452.89;;;3.61;81.95
49779;BME280;36217;60.232;24.776;2022-10-31T07:07:05;101456.11;;;3.79;82.89
49779;BME280;36217;60.232;24.776;2022-10-31T07:09:33;101453.99;;;4.08;81.92
49779;BME280;36217;60.232;24.776;2022-10-31T07:12:00;101457.12;;;4.12;81.58
49779;BME280;36217;60.232;24.776;2022-10-31T07:14:27;101460.75;;;4.24;81.43
49779;BME280;36217;60.232;24.776;2022-10-31T07:16:54;101464.68;;;3.98;81.46
49779;BME280;36217;60.232;24.776;2022-10-31T07:19:21;101467.07;;;4.23;81.71
49779;BME280;36217;60.232;24.776;2022-10-31T07:21:48;101469.63;;;4.28;80.92
49779;BME280;36217;60.232;24.776;2022-10-31T07:24:15;101469.42;;;4.58;81.37
49779;BME280;36217;60.232;24.776;2022-10-31T07:26:42;101468.74;;;4.26;81.71
49779;BME280;36217;60.232;24.776;2022-10-31T07:29:10;101475.57;;;4.57;81.08
49779;BME280;36217;60.232;24.776;2022-10-31T07:31:37;101473.84;;;4.63;81.05
49779;BME280;36217;60.232;24.776;2022-10-31T07:34:04;101481.95;;;4.63;81.38
49779;BME280;36217;60.232;24.776;2022-10-31T07:36:31;101481.14;;;4.73;81.63
49779;BME280;36217;60.232;24.776;2022-10-31T07:38:58;101479.22;;;4.71;81.77
49779;BME280;36217;60.232;24.776;2022-10-31T07:41:25;101476.50;;;4.89;81.44
49779;BME280;36217;60.232;24.776;2022-10-31T07:43:52;101473.25;;;4.73;81.26
49779;BME280;36217;60.232;24.776;2022-10-31T07:46:21;101479.77;;;4.85;81.53
49779;BME280;36217;60.232;24.776;2022-10-31T07:48:48;101482.30;;;4.89;81.75
49779;BME280;36217;60.232;24.776;2022-10-31T07:51:15;101485.89;;;4.81;81.86
49779;BME280;36217;60.232;24.776;2022-10-31T07:53:42;101488.83;;;4.91;82.51
49779;BME280;36217;60.232;24.776;2022-10-31T07:56:09;101491.38;;;4.75;83.43
49779;BME280;36217;60.232;24.776;2022-10-31T07:58:37;101488.85;;;4.86;83.01
49779;BME280;36217;60.232;24.776;2022-10-31T08:01:04;101489.77;;;5.00;82.76
49779;BME280;36217;60.232;24.776;2022-10-31T08:03:31;101488.06;;;4.82;82.80
49779;BME280;36217;60.232;24.776;2022-10-31T08:05:58;101488.39;;;5.15;81.66
49779;BME280;36217;60.232;24.776;2022-10-31T08:08:25;101491.85;;;5.10;81.85
49779;BME280;36217;60.232;24.776;2022-10-31T08:10:52;101493.62;;;5.54;81.25
49779;BME280;36217;60.232;24.776;2022-10-31T08:13:19;101494.83;;;5.38;81.04
49779;BME280;36217;60.232;24.776;2022-10-31T08:15:46;101502.55;;;5.40;80.93
49779;BME280;36217;60.232;24.776;2022-10-31T08:18:14;101508.28;;;5.42;81.34
49779;BME280;36217;60.232;24.776;2022-10-31T08:20:41;101509.89;;;5.46;81.33
49779;BME280;36217;60.232;24.776;2022-10-31T08:23:10;101508.02;;;5.58;81.20
49779;BME280;36217;60.232;24.776;2022-10-31T08:25:37;101510.70;;;5.54;81.28
49779;BME280;36217;60.232;24.776;2022-10-31T08:28:05;101511.43;;;5.82;81.21
49779;BME280;36217;60.232;24.776;2022-10-31T08:30:34;101508.79;;;5.59;81.27
49779;BME280;36217;60.232;24.776;2022-10-31T08:33:04;101507.98;;;5.71;81.12
49779;BME280;36217;60.232;24.776;2022-10-31T08:35:32;101506.92;;;5.31;81.22
49779;BME280;36217;60.232;24.776;2022-10-31T08:38:01;101504.97;;;5.88;80.87
49779;BME280;36217;60.232;24.776;2022-10-31T08:40:29;101504.41;;;5.90;81.19
49779;BME280;36217;60.232;24.776;2022-10-31T08:42:58;101507.71;;;5.83;81.36
49779;BME280;36217;60.232;24.776;2022-10-31T08:45:25;101510.99;;;5.75;81.87
49779;BME280;36217;60.232;24.776;2022-10-31T08:47:56;101515.33;;;5.86;81.45
49779;BME280;36217;60.232;24.776;2022-10-31T08:50:24;101514.43;;;5.94;80.32
49779;BME280;36217;60.232;24.776;2022-10-31T08:52:51;101514.22;;;6.08;80.84
49779;BME280;36217;60.232;24.776;2022-10-31T08:55:18;101517.15;;;6.18;80.32
49779;BME280;36217;60.232;24.776;2022-10-31T08:57:45;101515.55;;;6.28;80.20
49779;BME280;36217;60.232;24.776;2022-10-31T09:00:12;101507.33;;;6.29;80.11
49779;BME280;36217;60.232;24.776;2022-10-31T09:02:39;101506.33;;;6.14;80.38
49779;BME280;36217;60.232;24.776;2022-10-31T09:05:07;101497.99;;;5.96;80.18
49779;BME280;36217;60.232;24.776;2022-10-31T09:07:34;101498.30;;;6.17;79.55
49779;BME280;36217;60.232;24.776;2022-10-31T09:10:01;101506.38;;;5.82;79.83
49779;BME280;36217;60.232;24.776;2022-10-31T09:12:28;101502.29;;;5.95;79.42
49779;BME280;36217;60.232;24.776;2022-10-31T09:14:55;101501.00;;;6.27;79.16
49779;BME280;36217;60.232;24.776;2022-10-31T09:17:23;101500.18;;;6.04;79.15
49779;BME280;36217;60.232;24.776;2022-10-31T09:19:49;101505.54;;;6.21;78.72
49779;BME280;36217;60.232;24.776;2022-10-31T09:22:16;101507.56;;;6.18;78.71
49779;BME280;36217;60.232;24.776;2022-10-31T09:24:44;101497.38;;;6.22;78.52
49779;BME280;36217;60.232;24.776;2022-10-31T09:27:11;101501.01;;;6.20;78.86
49779;BME280;36217;60.232;24.776;2022-10-31T09:29:38;101499.74;;;6.13;79.12
49779;BME280;36217;60.232;24.776;2022-10-31T09:32:05;101504.53;;;6.31;78.93
49779;BME280;36217;60.232;24.776;2022-10-31T09:34:32;101500.44;;;6.36;78.77
49779;BME280;36217;60.232;24.776;2022-10-31T09:36:59;101498.21;;;6.39;78.55
49779;BME280;36217;60.232;24.776;2022-10-31T09:39:26;101498.44;;;6.46;78.48
49779;BME280;36217;60.232;24.776;2022-10-31T09:42:03;101500.47;;;6.44;78.52
49779;BME280;36217;60.232;24.776;2022-10-31T09:44:43;101504.37;;;6.36;79.05
49779;BME280;36217;60.232;24.776;2022-10-31T09:47:17;101507.28;;;6.36;78.91
49779;BME280;36217;60.232;24.776;2022-10-31T09:49:59;101511.27;;;6.36;79.10
49779;BME280;36217;60.232;24.776;2022-10-31T09:52:31;101516.24;;;6.42;78.82
49779;BME280;36217;60.232;24.776;2022-10-31T09:55:05;101517.67;;;6.60;78.55
49779;BME280;36217;60.232;24.776;2022-10-31T09:57:35;101513.73;;;6.54;78.69
49779;BME280;36217;60.232;24.776;2022-10-31T10:00:05;101512.61;;;6.56;78.77
49779;BME280;36217;60.232;24.776;2022-10-31T10:02:35;101511.41;;;6.47;78.56
49779;BME280;36217;60.232;24.776;2022-10-31T10:05:09;101508.97;;;6.48;79.54
49779;BME280;36217;60.232;24.776;2022-10-31T10:07:44;101506.61;;;6.59;79.14
49779;BME280;36217;60.232;24.776;2022-10-31T10:10:17;101504.57;;;6.37;79.41
49779;BME280;36217;60.232;24.776;2022-10-31T10:13:02;101502.50;;;6.68;79.70
49779;BME280;36217;60.232;24.776;2022-10-31T10:16:14;101502.06;;;6.72;79.13
49779;BME280;36217;60.232;24.776;2022-10-31T10:18:55;101503.74;;;6.62;79.83
49779;BME280;36217;60.232;24.776;2022-10-31T10:21:31;101505.09;;;6.67;79.64
49779;BME280;36217;60.232;24.776;2022-10-31T10:24:12;101504.42;;;6.38;80.45
49779;BME280;36217;60.232;24.776;2022-10-31T10:26:50;101498.80;;;6.70;80.44
49779;BME280;36217;60.232;24.776;2022-10-31T10:29:31;101497.06;;;6.63;80.29
49779;BME280;36217;60.232;24.776;2022-10-31T10:32:04;101502.73;;;6.84;80.01
49779;BME280;36217;60.232;24.776;2022-10-31T10:34:37;101498.55;;;6.82;80.13
49779;BME280;36217;60.232;24.776;2022-10-31T10:37:15;101500.42;;;6.80;80.25
49779;BME280;36217;60.232;24.776;2022-10-31T10:39:48;101494.89;;;6.87;80.24
49779;BME280;36217;60.232;24.776;2022-10-31T10:42:17;101489.19;;;6.89;80.28
49779;BME280;36217;60.232;24.776;2022-10-31T10:44:47;101485.94;;;6.60;80.77
49779;BME280;36217;60.232;24.776;2022-10-31T10:47:15;101481.87;;;6.68;80.42
49779;BME280;36217;60.232;24.776;2022-10-31T10:49:48;101471.55;;;6.77;80.12
49779;BME280;36217;60.232;24.776;2022-10-31T10:52:25;101471.77;;;6.66;80.63
49779;BME280;36217;60.232;24.776;2022-10-31T10:55:01;101470.26;;;6.99;80.20
49779;BME280;36217;60.232;24.776;2022-10-31T10:57:42;101473.26;;;6.97;80.38
49779;BME280;36217;60.232;24.776;2022-10-31T11:00:18;101469.73;;;6.83;79.87
49779;BME280;36217;60.232;24.776;2022-10-31T11:02:45;101469.33;;;7.14;79.51
49779;BME280;36217;60.232;24.776;2022-10-31T11:05:21;101475.38;;;6.88;79.78
49779;BME280;36217;60.232;24.776;2022-10-31T11:07:49;101473.61;;;7.00;79.46
49779;BME280;36217;60.232;24.776;2022-10-31T11:10:16;101467.27;;;6.75;79.68
49779;BME280;36217;60.232;24.776;2022-10-31T11:12:45;101465.17;;;6.91;79.77
49779;BME280;36217;60.232;24.776;2022-10-31T11:15:19;101460.43;;;6.76;79.53
49779;BME280;36217;60.232;24.776;2022-10-31T11:17:49;101461.81;;;7.07;79.86
49779;BME280;36217;60.232;24.776;2022-10-31T11:20:26;101462.02;;;7.11;80.36
49779;BME280;36217;60.232;24.776;2022-10-31T11:23:02;101463.96;;;7.23;80.21
49779;BME280;36217;60.232;24.776;2022-10-31T11:25:30;101467.47;;;6.84;80.87
49779;BME280;36217;60.232;24.776;2022-10-31T11:28:01;101469.44;;;6.76;80.58
49779;BME280;36217;60.232;24.776;2022-10-31T11:30:30;101467.37;;;6.90;80.83
49779;BME280;36217;60.232;24.776;2022-10-31T11:32:58;101468.12;;;6.73;80.77
49779;BME280;36217;60.232;24.776;2022-10-31T11:35:25;101474.48;;;7.29;80.66
49779;BME280;36217;60.232;24.776;2022-10-31T11:37:54;101477.50;;;6.89;81.59
49779;BME280;36217;60.232;24.776;2022-10-31T11:40:25;101479.73;;;6.80;81.93
49779;BME280;36217;60.232;24.776;2022-10-31T11:42:55;101482.90;;;6.96;81.84
49779;BME280;36217;60.232;24.776;2022-10-31T11:45:29;101482.61;;;7.22;81.82
49779;BME280;36217;60.232;24.776;2022-10-31T11:47:59;101485.12;;;7.19;82.36
49779;BME280;36217;60.232;24.776;2022-10-31T11:50:33;101483.74;;;6.77;82.24
49779;BME280;36217;60.232;24.776;2022-10-31T11:53:00;101482.08;;;6.84;82.84
49779;BME280;36217;60.232;24.776;2022-10-31T11:55:32;101483.70;;;6.95;82.80
49779;BME280;36217;60.232;24.776;2022-10-31T11:57:58;101484.36;;;7.02;82.69
49779;BME280;36217;60.232;24.776;2022-10-31T12:00:28;101481.83;;;7.03;82.65
49779;BME280;36217;60.232;24.776;2022-10-31T12:03:10;101477.42;;;6.87;83.64
49779;BME280;36217;60.232;24.776;2022-10-31T12:05:38;101482.36;;;6.68;83.87
49779;BME280;36217;60.232;24.776;2022-10-31T12:08:07;101480.36;;;6.80;83.60
49779;BME280;36217;60.232;24.776;2022-10-31T12:10:40;101476.25;;;6.67;83.91
49779;BME280;36217;60.232;24.776;2022-10-31T12:13:24;101472.50;;;6.91;83.94
49779;BME280;36217;60.232;24.776;2022-10-31T12:16:02;101469.68;;;6.84;84.09
49779;BME280;36217;60.232;24.776;2022-10-31T12:18:43;101468.78;;;6.58;84.73
49779;BME280;36217;60.232;24.776;2022-10-31T12:21:23;101469.34;;;6.37;85.59
49779;BME280;36217;60.232;24.776;2022-10-31T12:24:04;101470.32;;;6.94;85.59
49779;BME280;36217;60.232;24.776;2022-10-31T12:26:40;101471.33;;;6.54;86.60
49779;BME280;36217;60.232;24.776;2022-10-31T12:29:20;101468.60;;;6.22;87.13
49779;BME280;36217;60.232;24.776;2022-10-31T12:32:00;101466.19;;;6.13;88.02
49779;BME280;36217;60.232;24.776;2022-10-31T12:34:46;101459.33;;;6.61;87.04
49779;BME280;36217;60.232;24.776;2022-10-31T12:37:26;101459.40;;;6.03;88.34
49779;BME280;36217;60.232;24.776;2022-10-31T12:40:09;101462.59;;;6.26;88.71
49779;BME280;36217;60.232;24.776;2022-10-31T12:42:52;101460.47;;;6.02;89.00
49779;BME280;36217;60.232;24.776;2022-10-31T12:45:35;101457.39;;;6.40;89.83
49779;BME280;36217;60.232;24.776;2022-10-31T12:48:17;101451.00;;;6.25;89.08
49779;BME280;36217;60.232;24.776;2022-10-31T12:50:54;101444.63;;;6.47;89.76
49779;BME280;36217;60.232;24.776;2022-10-31T12:53:38;101445.94;;;6.53;88.95
49779;BME280;36217;60.232;24.776;2022-10-31T12:56:17;101445.25;;;6.60;88.86
49779;BME280;36217;60.232;24.776;2022-10-31T12:58:51;101436.30;;;6.48;89.39
49779;BME280;36217;60.232;24.776;2022-10-31T13:01:25;101432.22;;;6.22;89.87
49779;BME280;36217;60.232;24.776;2022-10-31T13:03:57;101428.14;;;6.45;90.31
49779;BME280;36217;60.232;24.776;2022-10-31T13:06:35;101430.33;;;6.39;91.11